createdAt,value
2022-10-19T00:00:01.876Z,58.41
2022-10-19T00:03:27.586Z,58.37
2022-10-19T00:06:33.118Z,58.55
2022-10-19T00:09:36.904Z,58.74
2022-10-19T00:12:39.698Z,58.92
2022-10-19T00:15:42.360Z,59.03
2022-10-19T00:18:45.551Z,59.05
2022-10-19T00:24:57.656Z,59.19
2022-10-19T00:28:01.025Z,59.20
2022-10-19T00:31:06.239Z,59.29
2022-10-19T00:34:09.678Z,59.39
2022-10-19T00:37:12.548Z,59.42
2022-10-19T00:40:15.208Z,59.47
2022-10-19T00:43:21.548Z,59.57
2022-10-19T00:46:25.926Z,59.24
2022-10-19T00:49:34.126Z,59.56
2022-10-19T00:52:39.353Z,59.91
2022-10-19T00:55:43.093Z,60.16
2022-10-19T00:58:46.245Z,60.23
2022-10-19T01:01:49.326Z,60.18
2022-10-19T01:04:52.964Z,60.19
2022-10-19T01:07:57.515Z,60.20
2022-10-19T01:11:09.051Z,60.25
2022-10-19T01:14:37.731Z,60.21
2022-10-19T01:17:40.316Z,60.20
2022-10-19T01:21:12.894Z,60.44
2022-10-19T01:24:38.374Z,60.53
2022-10-19T01:28:14.663Z,60.61
2022-10-19T01:31:41.670Z,60.58
2022-10-19T01:35:27.088Z,60.46
2022-10-19T01:38:52.808Z,60.37
2022-10-19T01:42:01.671Z,60.53
2022-10-19T01:45:11.859Z,60.66
2022-10-19T01:48:22.035Z,60.83
2022-10-19T01:51:34.362Z,61.10
2022-10-19T01:54:42.685Z,61.30
2022-10-19T01:57:55.904Z,61.71
2022-10-19T02:01:02.843Z,62.03
2022-10-19T02:04:06.108Z,62.04
2022-10-19T02:07:11.111Z,62.04
2022-10-19T02:13:23.024Z,62.04
2022-10-19T02:16:40.142Z,62.14
2022-10-19T02:19:43.677Z,62.10
2022-10-19T02:22:46.363Z,62.18
2022-10-19T02:25:49.278Z,62.25
2022-10-19T02:28:55.088Z,62.31
2022-10-19T02:31:57.866Z,62.33
2022-10-19T02:35:00.590Z,62.40
2022-10-19T02:38:05.832Z,62.54
2022-10-19T02:41:15.383Z,62.57
2022-10-19T02:44:29.842Z,62.72
2022-10-19T02:47:37.590Z,62.74
2022-10-19T02:50:45.957Z,63.00
2022-10-19T02:53:48.693Z,63.09
2022-10-19T02:56:51.429Z,63.08
2022-10-19T02:59:54.154Z,62.99
2022-10-19T03:02:56.823Z,62.76
2022-10-19T03:05:59.426Z,62.69
2022-10-19T03:09:02.163Z,62.38
2022-10-19T03:12:04.928Z,62.42
2022-10-19T03:15:08.448Z,62.43
2022-10-19T03:18:11.165Z,62.46
2022-10-19T03:21:13.997Z,62.45
2022-10-19T03:24:16.869Z,62.34
2022-10-19T03:27:19.602Z,62.11
2022-10-19T03:30:22.834Z,61.99
2022-10-19T03:36:35.601Z,61.77
2022-10-19T03:39:38.294Z,61.70
2022-10-19T03:42:41.004Z,61.74
2022-10-19T03:45:47.424Z,61.63
2022-10-19T03:48:50.108Z,61.59
2022-10-19T03:51:52.924Z,61.51
2022-10-19T03:54:55.525Z,61.48
2022-10-19T03:57:58.239Z,61.38
2022-10-19T04:01:01.209Z,61.26
2022-10-19T04:04:07.456Z,60.83
2022-10-19T04:07:10.118Z,61.29
2022-10-19T04:10:12.844Z,61.54
2022-10-19T04:13:15.439Z,61.65
2022-10-19T04:16:36.567Z,61.76
2022-10-19T04:19:39.214Z,61.85
2022-10-19T04:22:41.924Z,61.96
2022-10-19T04:25:44.555Z,62.07
2022-10-19T04:28:47.384Z,61.87
2022-10-19T04:31:52.134Z,61.84
2022-10-19T04:34:54.928Z,61.96
2022-10-19T04:37:59.021Z,62.04
2022-10-19T04:41:10.076Z,61.99
2022-10-19T04:44:12.700Z,62.14
2022-10-19T04:47:15.404Z,62.30
2022-10-19T04:50:18.058Z,62.36
2022-10-19T04:53:20.952Z,62.51
2022-10-19T04:56:27.768Z,62.66
2022-10-19T04:59:30.503Z,62.73
2022-10-19T05:02:33.514Z,62.94
2022-10-19T05:05:36.378Z,63.15
2022-10-19T05:08:41.930Z,63.34
2022-10-19T05:11:44.783Z,63.57
2022-10-19T05:14:47.410Z,63.70
2022-10-19T05:17:50.144Z,63.75
2022-10-19T05:21:04.240Z,63.87
2022-10-19T05:24:07.135Z,64.09
2022-10-19T05:27:09.744Z,64.23
2022-10-19T05:30:14.425Z,64.35
2022-10-19T05:33:17.037Z,64.15
2022-10-19T05:36:38.771Z,64.39
2022-10-19T05:39:41.619Z,64.44
2022-10-19T05:42:44.584Z,64.39
2022-10-19T05:45:47.312Z,64.33
2022-10-19T05:48:50.156Z,64.39
2022-10-19T05:51:55.116Z,64.46
2022-10-19T05:54:58.503Z,64.58
2022-10-19T05:58:01.131Z,64.76
2022-10-19T06:01:04.250Z,64.79
2022-10-19T06:04:07.402Z,64.76
2022-10-19T06:07:09.949Z,64.73
2022-10-19T06:10:15.909Z,64.76
2022-10-19T06:13:19.561Z,64.64
2022-10-19T06:16:24.195Z,64.60
2022-10-19T06:19:26.622Z,64.61
2022-10-19T06:22:29.809Z,64.50
2022-10-19T06:25:34.889Z,64.44
2022-10-19T06:28:39.998Z,64.18
2022-10-19T06:31:42.732Z,64.21
2022-10-19T06:34:45.720Z,63.87
2022-10-19T06:37:48.512Z,63.44
2022-10-19T06:40:51.568Z,63.33
2022-10-19T06:43:55.274Z,63.28
2022-10-19T06:46:58.587Z,63.23
2022-10-19T06:50:01.613Z,63.09
2022-10-19T06:53:04.563Z,62.75
2022-10-19T06:56:07.470Z,62.29
2022-10-19T06:59:13.015Z,61.90
2022-10-19T07:02:16.023Z,61.45
2022-10-19T07:05:19.100Z,60.59
2022-10-19T07:08:21.796Z,59.99
2022-10-19T07:11:24.648Z,59.39
2022-10-19T07:14:28.623Z,58.34
2022-10-19T07:17:31.859Z,57.42
2022-10-19T07:20:34.471Z,56.20
2022-10-19T07:23:39.204Z,54.71
2022-10-19T07:26:41.663Z,53.54
2022-10-19T07:29:44.507Z,52.27
2022-10-19T07:32:47.295Z,50.50
2022-10-19T07:35:50.292Z,49.09
2022-10-19T07:38:52.871Z,47.82
2022-10-19T07:41:55.764Z,46.17
2022-10-19T07:44:58.340Z,40.87
2022-10-19T07:48:01.376Z,32.94
2022-10-19T07:51:06.628Z,25.74
2022-10-19T07:54:09.520Z,23.92
2022-10-19T07:57:12.496Z,22.94
2022-10-19T08:00:17.087Z,21.21
2022-10-19T08:06:44.631Z,21.10
2022-10-19T08:09:53.231Z,18.49
2022-10-19T08:12:56.556Z,17.50
2022-10-19T08:15:59.292Z,17.00
2022-10-19T08:19:05.766Z,16.47
2022-10-19T08:22:09.227Z,15.45
2022-10-19T08:25:11.965Z,12.94
2022-10-19T08:28:14.986Z,10.93
2022-10-19T08:31:21.615Z,9.04
2022-10-19T08:34:25.260Z,7.95
2022-10-19T08:37:43.838Z,7.43
2022-10-19T08:40:47.575Z,6.51
2022-10-19T08:44:21.823Z,6.27
2022-10-19T08:47:42.979Z,5.90
2022-10-19T08:50:47.032Z,5.81
2022-10-19T08:53:57.227Z,5.81
2022-10-19T08:57:24.510Z,5.87
2022-10-19T09:03:55.287Z,6.08
2022-10-19T09:07:31.269Z,6.17
2022-10-19T09:10:40.641Z,6.73
2022-10-19T09:14:05.844Z,7.66
2022-10-19T09:17:14.867Z,9.60
2022-10-19T09:20:25.274Z,11.59
2022-10-19T09:23:40.666Z,13.72
2022-10-19T09:26:52.352Z,15.26
2022-10-19T09:30:02.503Z,16.78
2022-10-19T09:33:15.231Z,18.02
2022-10-19T09:36:22.901Z,20.36
2022-10-19T09:39:31.105Z,21.78
2022-10-19T09:42:36.746Z,23.72
2022-10-19T09:45:50.101Z,24.69
2022-10-19T09:48:53.391Z,25.71
2022-10-19T09:51:56.511Z,26.34
2022-10-19T09:55:18.281Z,27.13
2022-10-19T09:58:24.747Z,27.48
2022-10-19T10:01:41.504Z,27.88
2022-10-19T10:05:07.262Z,28.17
2022-10-19T10:08:16.827Z,28.92
2022-10-19T10:11:24.025Z,29.22
2022-10-19T10:14:33.432Z,29.57
2022-10-19T10:17:37.342Z,30.12
2022-10-19T10:24:12.488Z,30.30
2022-10-19T10:27:31.847Z,30.16
2022-10-19T10:30:37.252Z,29.02
2022-10-19T10:33:45.115Z,27.52
2022-10-19T10:36:53.973Z,27.51
2022-10-19T10:40:01.926Z,27.45
2022-10-19T10:43:13.345Z,27.73
2022-10-19T10:46:20.456Z,27.14
2022-10-19T10:49:54.494Z,25.52
2022-10-19T10:53:01.966Z,24.36
2022-10-19T10:56:06.745Z,23.32
2022-10-19T10:59:19.832Z,23.15
2022-10-19T11:02:48.585Z,23.12
2022-10-19T11:05:59.407Z,22.55
2022-10-19T11:09:20.621Z,22.34
2022-10-19T11:12:52.203Z,21.79
2022-10-19T11:16:05.031Z,21.74
2022-10-19T11:19:27.376Z,21.68
2022-10-19T11:22:35.803Z,21.16
2022-10-19T11:25:57.008Z,21.05
2022-10-19T11:29:28.006Z,20.95
2022-10-19T11:32:38.845Z,20.40
2022-10-19T11:35:54.273Z,20.80
2022-10-19T11:39:19.461Z,21.31
2022-10-19T11:42:58.524Z,21.70
2022-10-19T11:46:09.435Z,22.13
2022-10-19T11:49:36.261Z,22.45
2022-10-19T11:53:09.629Z,23.24
2022-10-19T11:56:18.483Z,23.38
2022-10-19T11:59:47.002Z,23.32
2022-10-19T12:03:31.451Z,23.43
2022-10-19T12:06:45.416Z,23.66
2022-10-19T12:10:03.145Z,23.85
2022-10-19T12:13:11.790Z,23.90
2022-10-19T12:16:15.177Z,23.66
2022-10-19T12:19:22.638Z,23.83
2022-10-19T12:22:29.009Z,23.68
2022-10-19T12:25:33.760Z,23.60
2022-10-19T12:28:40.350Z,23.03
2022-10-19T12:31:46.915Z,23.18
2022-10-19T12:35:00.338Z,22.76
2022-10-19T12:38:28.964Z,22.54
2022-10-19T12:41:53.172Z,22.65
2022-10-19T12:45:02.337Z,23.01
2022-10-19T12:48:19.058Z,23.48
2022-10-19T12:51:22.006Z,23.72
2022-10-19T12:54:26.138Z,23.45
2022-10-19T12:57:30.304Z,23.47
2022-10-19T13:00:35.664Z,23.69
2022-10-19T13:03:41.338Z,23.32
2022-10-19T13:07:03.757Z,23.01
2022-10-19T13:10:18.900Z,22.91
2022-10-19T13:13:52.365Z,23.33
2022-10-19T13:17:03.426Z,23.67
2022-10-19T13:20:15.154Z,24.30
2022-10-19T13:23:18.088Z,24.48
2022-10-19T13:26:32.979Z,24.68
2022-10-19T13:29:38.913Z,25.21
2022-10-19T13:32:45.326Z,25.47
2022-10-19T13:35:49.084Z,25.39
2022-10-19T13:39:02.681Z,25.80
2022-10-19T13:42:05.729Z,26.61
2022-10-19T13:45:22.402Z,27.30
2022-10-19T13:48:49.088Z,28.17
2022-10-19T13:52:14.035Z,28.90
2022-10-19T13:55:38.517Z,29.38
2022-10-19T13:58:53.140Z,30.25
2022-10-19T14:02:28.266Z,31.13
2022-10-19T14:05:42.843Z,31.43
2022-10-19T14:09:19.707Z,32.00
2022-10-19T14:12:25.920Z,32.75
2022-10-19T14:15:34.027Z,33.27
2022-10-19T14:18:37.693Z,33.83
2022-10-19T14:21:41.253Z,34.01
2022-10-19T14:24:44.087Z,34.21
2022-10-19T14:27:48.502Z,34.86
2022-10-19T14:31:02.982Z,35.13
2022-10-19T14:34:09.399Z,35.61
2022-10-19T14:37:24.495Z,36.16
2022-10-19T14:40:29.088Z,36.46
2022-10-19T14:43:34.236Z,37.03
2022-10-19T14:46:37.145Z,37.14
2022-10-19T14:49:39.748Z,37.15
2022-10-19T14:52:42.417Z,37.35
2022-10-19T14:55:46.269Z,37.67
2022-10-19T14:59:03.361Z,37.22
2022-10-19T15:02:18.469Z,37.11
2022-10-19T15:05:25.055Z,36.90
2022-10-19T15:08:43.757Z,36.78
2022-10-19T15:11:47.090Z,37.23
2022-10-19T15:14:50.008Z,37.55
2022-10-19T15:18:16.351Z,38.12
2022-10-19T15:21:30.358Z,37.78
2022-10-19T15:24:34.559Z,37.76
2022-10-19T15:27:37.239Z,37.96
2022-10-19T15:30:39.965Z,38.49
2022-10-19T15:33:53.277Z,38.68
2022-10-19T15:37:00.786Z,39.27
2022-10-19T15:40:14.202Z,39.16
2022-10-19T15:43:34.216Z,39.30
2022-10-19T15:46:49.417Z,38.99
2022-10-19T15:49:55.770Z,39.29
2022-10-19T15:52:59.559Z,39.46
2022-10-19T15:59:17.212Z,40.62
2022-10-19T16:02:19.958Z,40.58
2022-10-19T16:05:24.937Z,41.14
2022-10-19T16:08:27.671Z,41.64
2022-10-19T16:11:32.401Z,41.95
2022-10-19T16:14:36.612Z,41.11
2022-10-19T16:17:40.340Z,41.75
2022-10-19T16:20:43.329Z,41.76
2022-10-19T16:23:45.938Z,42.95
2022-10-19T16:26:48.557Z,42.79
2022-10-19T16:29:51.268Z,42.04
2022-10-19T16:32:53.928Z,41.75
2022-10-19T16:35:56.758Z,42.34
2022-10-19T16:39:01.060Z,42.35
2022-10-19T16:42:03.992Z,42.41
2022-10-19T16:45:07.195Z,41.73
2022-10-19T16:48:12.953Z,42.10
2022-10-19T16:51:21.621Z,42.85
2022-10-19T16:54:26.780Z,42.30
2022-10-19T16:57:29.609Z,42.60
2022-10-19T17:00:32.602Z,43.27
2022-10-19T17:03:35.836Z,42.78
2022-10-19T17:06:38.834Z,43.14
2022-10-19T17:09:42.932Z,42.91
2022-10-19T17:12:46.136Z,43.39
2022-10-19T17:15:48.877Z,43.18
2022-10-19T17:18:55.047Z,43.23
2022-10-19T17:21:59.103Z,43.59
2022-10-19T17:25:02.060Z,43.72
2022-10-19T17:28:04.936Z,43.67
2022-10-19T17:31:11.087Z,44.03
2022-10-19T17:34:13.961Z,44.15
2022-10-19T17:37:16.705Z,44.18
2022-10-19T17:40:19.373Z,44.42
2022-10-19T17:43:22.065Z,44.33
2022-10-19T17:46:30.793Z,44.10
2022-10-19T17:49:33.471Z,44.45
2022-10-19T17:52:36.202Z,45.03
2022-10-19T17:55:38.942Z,45.15
2022-10-19T17:58:41.998Z,45.19
2022-10-19T18:01:44.669Z,45.58
2022-10-19T18:04:47.693Z,45.61
2022-10-19T18:07:51.364Z,45.94
2022-10-19T18:11:03.488Z,46.11
2022-10-19T18:14:08.220Z,46.66
2022-10-19T18:17:13.270Z,46.73
2022-10-19T18:20:15.697Z,46.92
2022-10-19T18:23:18.969Z,47.10
2022-10-19T18:26:24.066Z,47.17
2022-10-19T18:29:29.368Z,47.41
2022-10-19T18:32:31.888Z,47.63
2022-10-19T18:35:43.664Z,47.56
2022-10-19T18:38:50.463Z,47.80
2022-10-19T18:41:56.382Z,47.84
2022-10-19T18:44:58.842Z,47.95
2022-10-19T18:48:02.314Z,48.13
2022-10-19T18:51:07.391Z,48.20
2022-10-19T18:54:11.307Z,48.25
2022-10-19T18:57:13.802Z,48.48
2022-10-19T19:00:16.802Z,48.86
2022-10-19T19:03:20.598Z,48.75
2022-10-19T19:06:26.584Z,48.42
2022-10-19T19:09:29.642Z,48.84
2022-10-19T19:12:32.889Z,48.98
2022-10-19T19:15:35.544Z,48.82
2022-10-19T19:18:38.936Z,49.26
2022-10-19T19:21:44.566Z,49.24
2022-10-19T19:24:50.281Z,49.43
2022-10-19T19:27:52.816Z,49.25
2022-10-19T19:30:55.890Z,49.34
2022-10-19T19:34:05.847Z,49.41
2022-10-19T19:37:11.107Z,49.05
2022-10-19T19:40:14.658Z,48.86
2022-10-19T19:43:20.115Z,48.44
2022-10-19T19:46:22.639Z,48.44
2022-10-19T19:49:26.026Z,48.36
2022-10-19T19:52:28.494Z,48.62
2022-10-19T19:55:38.142Z,48.72
2022-10-19T19:58:42.134Z,48.39
2022-10-19T20:01:47.003Z,47.94
2022-10-19T20:04:49.782Z,47.91
2022-10-19T20:07:53.081Z,47.75
2022-10-19T20:11:00.640Z,47.53
2022-10-19T20:14:03.307Z,47.29
2022-10-19T20:17:06.110Z,47.37
2022-10-19T20:20:10.420Z,47.37
2022-10-19T20:23:13.179Z,47.57
2022-10-19T20:26:18.974Z,47.62
2022-10-19T20:29:22.228Z,47.62
2022-10-19T20:32:26.370Z,47.67
2022-10-19T20:35:29.582Z,47.61
2022-10-19T20:38:33.456Z,47.88
2022-10-19T20:41:36.331Z,47.50
2022-10-19T20:44:39.048Z,47.10
2022-10-19T20:47:41.839Z,47.24
2022-10-19T20:50:44.499Z,47.25
2022-10-19T20:53:49.338Z,47.25
2022-10-19T20:56:52.062Z,47.17
2022-10-19T20:59:54.761Z,47.26
2022-10-19T21:02:57.499Z,47.71
2022-10-19T21:06:08.341Z,47.40
2022-10-19T21:09:12.637Z,47.46
2022-10-19T21:12:15.431Z,47.90
2022-10-19T21:15:18.144Z,47.96
2022-10-19T21:18:20.917Z,48.04
2022-10-19T21:21:27.227Z,48.20
2022-10-19T21:24:32.895Z,48.20
2022-10-19T21:27:35.702Z,48.11
2022-10-19T21:30:38.715Z,48.27
2022-10-19T21:33:41.849Z,48.01
2022-10-19T21:36:44.536Z,48.20
2022-10-19T21:39:47.060Z,48.67
2022-10-19T21:42:49.772Z,48.66
2022-10-19T21:45:52.687Z,48.85
2022-10-19T21:48:56.246Z,49.16
2022-10-19T21:51:58.847Z,49.34
2022-10-19T21:55:01.679Z,49.69
2022-10-19T21:58:05.163Z,49.78
2022-10-19T22:01:08.265Z,49.48
2022-10-19T22:04:12.661Z,49.63
2022-10-19T22:07:14.965Z,49.62
2022-10-19T22:10:17.914Z,49.73
2022-10-19T22:13:20.382Z,49.92
2022-10-19T22:16:24.355Z,49.83
2022-10-19T22:19:26.778Z,49.76
2022-10-19T22:22:29.699Z,49.62
2022-10-19T22:25:33.384Z,49.81
2022-10-19T22:28:36.585Z,49.85
2022-10-19T22:31:39.557Z,49.75
2022-10-19T22:34:42.617Z,49.87
2022-10-19T22:37:45.115Z,50.18
2022-10-19T22:41:44.330Z,50.09
2022-10-19T22:45:05.957Z,49.97
2022-10-19T22:48:09.049Z,50.20
2022-10-19T22:51:11.564Z,50.49
2022-10-19T22:54:15.105Z,50.55
2022-10-19T22:57:17.639Z,50.70
2022-10-19T23:00:21.467Z,50.74
2022-10-19T23:03:23.802Z,50.71
2022-10-19T23:06:27.041Z,51.12
2022-10-19T23:09:29.678Z,51.06
2022-10-19T23:12:32.668Z,51.15
2022-10-19T23:15:35.233Z,51.39
2022-10-19T23:18:41.382Z,51.37
2022-10-19T23:21:43.934Z,51.43
2022-10-19T23:24:46.885Z,51.51
2022-10-19T23:27:49.381Z,51.56
2022-10-19T23:30:52.575Z,51.59
2022-10-19T23:33:55.063Z,51.70
2022-10-19T23:36:58.144Z,51.58
2022-10-19T23:40:01.142Z,51.83
2022-10-19T23:43:04.120Z,52.06
2022-10-19T23:46:06.673Z,52.19
2022-10-19T23:49:09.560Z,52.33
2022-10-19T23:52:11.989Z,52.47
2022-10-19T23:55:14.932Z,52.60
2022-10-19T23:58:17.379Z,52.67
